Main page
METAR-TAF:

METAR-TAF

Airports :

N'Djamena, Chad

N'Djamena International Airport

latitude: 12-08N, longitude: 015-02E, elevation: 295 m

Current weather observation

The report was made 24 minutes ago, at 05:00 UTC
Wind 10 kt from the East/Northeast
Temperature 26°C
Humidity 16%
Pressure 1011 hPa
Visibility 10 km or more
no clouds below 1500 m and no cumulonimbus

METAR: FTTJ 260500Z 07010KT CAVOK 26/M02 Q1011 NOSIG

Time: 06:24 (05:24 UTC)

Forecast

The report was made 6 hours and 24 minutes ago, at 23:00 UTC
Forecast valid from 26 at 00 UTC to 27 at 06 UTC
Wind 12 kt from the East/Northeast
Visibility 10 km or more
no clouds below 1500 m and no cumulonimbus
Becoming
from 26 at 18 UTC to 26 at 20 UTC
Visibility: 2000 m
widespread dust

TAF: FTTJ 252300Z 2600/2706 06012KT CAVOK BECMG 2618/2620 2000 DU

Weather observations and forecasts of more than 4000 airports (METAR and TAF reports).

The available stations are represented by yellow and red dots on the map.

Hover mouse over dot to see the name of the station.

Then click to see weather observations and forecasts.

To change the map : click on the green buttons with a black cross to zoom in, on the green button with a dash to zoom out, or on the green arrows for adjacent maps.


METAR-TAF: